Time,TemperatureF,DewpointF,PressureIn,WindDirection,WindDirectionDegrees,WindSpeedMPH,WindSpeedGustMPH,Humidity,HourlyPrecipIn,Conditions,Clouds,dailyrainin,SoftwareType,DateUTC
2013-01-14 00:02:00,-2.0,-7.0,-100.00,NE,45,1.0,2.0,79,-99.99,,,0.00,,2013-01-14 07:02:00,
2013-01-14 00:12:00,-5.0,-10.0,-100.00,NE,35,1.0,2.0,79,-99.99,,,0.00,,2013-01-14 07:12:00,
2013-01-14 00:22:00,-5.0,-10.0,-100.00,NE,35,1.0,2.0,79,-99.99,,,0.00,,2013-01-14 07:22:00,
2013-01-14 00:32:00,-5.0,-10.0,-100.00,NE,35,1.0,2.0,79,-99.99,,,0.00,,2013-01-14 07:32:00,
2013-01-14 00:42:00,-5.0,-10.0,-100.00,NE,35,1.0,2.0,79,-99.99,,,0.00,,2013-01-14 07:42:00,
2013-01-14 00:52:00,-7.0,-12.0,-100.00,SSW,200,0.0,1.0,79,-99.99,,,0.00,,2013-01-14 07:52:00,
2013-01-14 01:02:00,-7.0,-12.0,-100.00,SSW,200,0.0,1.0,79,-99.99,,,0.00,,2013-01-14 08:02:00,
2013-01-14 01:12:00,-8.0,-13.0,-100.00,NNE,25,2.0,3.0,79,-99.99,,,0.00,,2013-01-14 08:12:00,
2013-01-14 01:22:00,-8.0,-13.0,-100.00,NNE,25,2.0,3.0,79,-99.99,,,0.00,,2013-01-14 08:22:00,
2013-01-14 01:32:00,-7.0,-12.0,-100.00,NE,50,1.0,2.0,79,-99.99,,,-99.99,,2013-01-14 08:32:00,
2013-01-14 01:41:00,-7.0,-12.0,-100.00,NE,35,0.0,1.0,78,-99.99,,,0.00,,2013-01-14 08:41:00,
2013-01-14 01:42:00,-7.0,-12.0,-100.00,NE,50,1.0,2.0,79,-99.99,,,-99.99,,2013-01-14 08:42:00,
2013-01-14 01:52:00,-8.0,-13.0,-100.00,NE,45,1.0,2.0,78,-99.99,,,0.00,,2013-01-14 08:52:00,
2013-01-14 02:02:00,-8.0,-13.0,-100.00,NE,45,1.0,2.0,78,-99.99,,,0.00,,2013-01-14 09:02:00,
2013-01-14 02:12:00,-7.0,-12.0,-100.00,NE,35,0.0,1.0,78,-99.99,,,0.00,,2013-01-14 09:12:00,
2013-01-14 02:22:00,-7.0,-12.0,-100.00,NE,35,0.0,1.0,78,-99.99,,,0.00,,2013-01-14 09:22:00,
2013-01-14 02:33:00,-7.0,-12.0,-100.00,NE,35,0.0,1.0,78,-99.99,,,0.00,,2013-01-14 09:33:00,
2013-01-14 02:41:00,-8.0,-13.0,-100.00,East,100,0.0,1.0,78,-99.99,,,0.00,,2013-01-14 09:41:00,
2013-01-14 02:52:00,-8.0,-13.0,-100.00,South,185,0.0,3.0,78,-99.99,,,0.00,,2013-01-14 09:52:00,
2013-01-14 03:02:00,-8.0,-13.0,-100.00,South,185,0.0,3.0,78,-99.99,,,0.00,,2013-01-14 10:02:00,
2013-01-14 03:12:00,-8.0,-13.0,-100.00,East,100,0.0,1.0,78,-99.99,,,0.00,,2013-01-14 10:12:00,
2013-01-14 03:22:00,-8.0,-13.0,-100.00,East,100,0.0,1.0,78,-99.99,,,0.00,,2013-01-14 10:22:00,
2013-01-14 03:32:00,-8.0,-13.0,-100.00,East,100,0.0,1.0,78,-99.99,,,0.00,,2013-01-14 10:32:00,
2013-01-14 03:52:00,-10.0,-15.0,-100.00,South,175,0.0,1.0,77,-99.99,,,0.00,,2013-01-14 10:52:00,
2013-01-14 04:02:00,-10.0,-15.0,-100.00,South,175,0.0,1.0,77,-99.99,,,0.00,,2013-01-14 11:02:00,
2013-01-14 04:12:00,-11.0,-17.0,-100.00,South,170,1.0,4.0,77,-99.99,,,0.00,,2013-01-14 11:12:00,
2013-01-14 04:22:00,-11.0,-17.0,-100.00,South,170,1.0,4.0,77,-99.99,,,0.00,,2013-01-14 11:22:00,
2013-01-14 04:32:00,-11.0,-17.0,-100.00,NNE,20,1.0,2.0,77,-99.99,,,-99.99,,2013-01-14 11:32:00,
2013-01-14 04:53:00,-12.0,-17.0,-100.00,SSW,210,0.0,3.0,77,-99.99,,,0.00,,2013-01-14 11:53:00,
2013-01-14 05:02:00,-12.0,-17.0,-100.00,SSW,210,0.0,3.0,77,-99.99,,,0.00,,2013-01-14 12:02:00,
2013-01-14 05:12:00,-13.0,-18.0,-100.00,SSW,200,1.0,3.0,77,-99.99,,,-99.99,,2013-01-14 12:12:00,
2013-01-14 05:22:00,-13.0,-18.0,-100.00,SSW,200,1.0,3.0,77,-99.99,,,-99.99,,2013-01-14 12:22:00,
2013-01-14 05:33:00,-13.0,-18.0,-100.00,SSW,200,1.0,3.0,77,-99.99,,,-99.99,,2013-01-14 12:33:00,
2013-01-14 05:42:00,-13.0,-18.0,-100.00,SSW,200,1.0,3.0,77,-99.99,,,-99.99,,2013-01-14 12:42:00,
2013-01-14 05:52:00,-16.0,-22.0,-100.00,SSW,195,1.0,3.0,75,-99.99,,,-99.99,,2013-01-14 12:52:00,
2013-01-14 06:03:00,-16.0,-22.0,-100.00,SSW,195,1.0,3.0,75,-99.99,,,-99.99,,2013-01-14 13:03:00,
2013-01-14 06:12:00,-15.0,-21.0,-100.00,SW,225,1.0,3.0,75,-99.99,,,0.00,,2013-01-14 13:12:00,
2013-01-14 06:22:00,-15.0,-21.0,-100.00,SW,225,1.0,3.0,75,-99.99,,,0.00,,2013-01-14 13:22:00,
2013-01-14 06:33:00,-15.0,-21.0,-100.00,SW,225,1.0,3.0,75,-99.99,,,0.00,,2013-01-14 13:33:00,
2013-01-14 06:52:00,-17.0,-23.0,-100.00,NE,50,1.0,2.0,75,-99.99,,,0.00,,2013-01-14 13:52:00,
2013-01-14 07:02:00,-17.0,-23.0,-100.00,NE,50,1.0,2.0,75,-99.99,,,0.00,,2013-01-14 14:02:00,
2013-01-14 07:12:00,-14.0,-20.0,-100.00,NE,50,2.0,3.0,76,-99.99,,,0.00,,2013-01-14 14:12:00,
2013-01-14 07:22:00,-14.0,-20.0,-100.00,NE,50,2.0,3.0,76,-99.99,,,0.00,,2013-01-14 14:22:00,
2013-01-14 07:33:00,-11.0,-16.0,-100.00,NE,35,2.0,5.0,78,-99.99,,,0.00,,2013-01-14 14:33:00,
2013-01-14 07:42:00,-11.0,-16.0,-100.00,NE,35,2.0,5.0,78,-99.99,,,0.00,,2013-01-14 14:42:00,
2013-01-14 07:52:00,-10.0,-15.0,-100.00,ESE,115,1.0,6.0,77,-99.99,,,-99.99,,2013-01-14 14:52:00,
2013-01-14 08:03:00,-10.0,-15.0,-100.00,ESE,115,1.0,6.0,77,-99.99,,,-99.99,,2013-01-14 15:03:00,
2013-01-14 08:12:00,-9.0,-14.0,-100.00,NNE,30,1.0,3.0,78,-99.99,,,0.00,,2013-01-14 15:12:00,
2013-01-14 08:23:00,-9.0,-14.0,-100.00,NNE,30,1.0,3.0,78,-99.99,,,0.00,,2013-01-14 15:23:00,
2013-01-14 08:33:00,-3.0,-8.0,-100.00,NE,45,4.0,4.0,80,-99.99,,,0.00,,2013-01-14 15:33:00,
2013-01-14 08:43:00,-3.0,-8.0,-100.00,NE,45,4.0,4.0,80,-99.99,,,0.00,,2013-01-14 15:43:00,
2013-01-14 08:53:00,-6.0,-11.0,-100.00,ENE,65,1.0,2.0,78,-99.99,,,0.00,,2013-01-14 15:53:00,
2013-01-14 09:02:00,-6.0,-11.0,-100.00,ENE,65,1.0,2.0,78,-99.99,,,0.00,,2013-01-14 16:02:00,
2013-01-14 09:12:00,-5.0,-10.0,-100.00,NE,45,2.0,3.0,78,-99.99,,,0.00,,2013-01-14 16:12:00,
2013-01-14 09:23:00,-5.0,-10.0,-100.00,NE,45,2.0,3.0,78,-99.99,,,0.00,,2013-01-14 16:23:00,
2013-01-14 09:33:00,-4.0,-9.0,-100.00,NE,35,3.0,4.0,79,-99.99,,,0.00,,2013-01-14 16:33:00,
2013-01-14 09:42:00,-4.0,-9.0,-100.00,NE,35,3.0,4.0,79,-99.99,,,0.00,,2013-01-14 16:42:00,
2013-01-14 09:53:00,0.0,-5.0,-100.00,NNE,20,2.0,3.0,81,-99.99,,,0.00,,2013-01-14 16:53:00,
2013-01-14 10:03:00,0.0,-5.0,-100.00,NNE,20,2.0,3.0,81,-99.99,,,0.00,,2013-01-14 17:03:00,
2013-01-14 10:12:00,2.0,-3.0,-100.00,North,-999,0.0,0.0,81,-99.99,,,0.00,,2013-01-14 17:12:00,
2013-01-14 10:22:00,2.0,-3.0,-100.00,North,-999,0.0,0.0,81,-99.99,,,0.00,,2013-01-14 17:22:00,
2013-01-14 10:33:00,2.0,-3.0,-100.00,North,-999,0.0,0.0,81,-99.99,,,-99.99,,2013-01-14 17:33:00,
2013-01-14 10:42:00,2.0,-3.0,-100.00,North,-999,0.0,0.0,81,-99.99,,,-99.99,,2013-01-14 17:42:00,
2013-01-14 10:53:00,5.0,1.0,-100.00,West,260,4.0,6.0,81,-99.99,,,-99.99,,2013-01-14 17:53:00,
2013-01-14 11:03:00,5.0,1.0,-100.00,West,260,4.0,6.0,81,-99.99,,,-99.99,,2013-01-14 18:03:00,
2013-01-14 11:12:00,5.0,1.0,-100.00,West,260,4.0,6.0,81,-99.99,,,-99.99,,2013-01-14 18:12:00,
2013-01-14 11:22:00,5.0,1.0,-100.00,West,260,4.0,6.0,81,-99.99,,,-99.99,,2013-01-14 18:22:00,
2013-01-14 11:33:00,6.0,1.0,-100.00,SSW,205,0.0,4.0,80,-99.99,,,-99.99,,2013-01-14 18:33:00,
2013-01-14 11:42:00,6.0,1.0,-100.00,SSW,205,0.0,4.0,80,-99.99,,,-99.99,,2013-01-14 18:42:00,
2013-01-14 11:52:00,7.0,1.0,-100.00,WSW,250,6.0,9.0,78,-99.99,,,0.00,,2013-01-14 18:52:00,
2013-01-14 12:03:00,7.0,1.0,-100.00,WSW,250,6.0,9.0,78,-99.99,,,0.00,,2013-01-14 19:03:00,
2013-01-14 12:12:00,7.0,2.0,-100.00,SW,230,8.0,11.0,77,-99.99,,,0.00,,2013-01-14 19:12:00,
2013-01-14 12:22:00,7.0,2.0,-100.00,SW,230,8.0,11.0,77,-99.99,,,0.00,,2013-01-14 19:22:00,
2013-01-14 12:33:00,8.0,2.0,-100.00,SW,225,8.0,10.0,76,-99.99,,,0.00,,2013-01-14 19:33:00,
2013-01-14 12:42:00,8.0,2.0,-100.00,SW,225,8.0,10.0,76,-99.99,,,0.00,,2013-01-14 19:42:00,
2013-01-14 12:52:00,9.0,2.0,-100.00,SW,235,8.0,11.0,74,-99.99,,,0.00,,2013-01-14 19:52:00,
2013-01-14 13:03:00,9.0,2.0,-100.00,SW,235,8.0,11.0,74,-99.99,,,0.00,,2013-01-14 20:03:00,
2013-01-14 13:12:00,10.0,3.0,-100.00,WSW,240,8.0,14.0,73,-99.99,,,0.00,,2013-01-14 20:12:00,
2013-01-14 13:22:00,10.0,3.0,-100.00,WSW,240,8.0,14.0,73,-99.99,,,0.00,,2013-01-14 20:22:00,
2013-01-14 13:33:00,10.0,2.0,-100.00,SW,230,12.0,15.0,70,-99.99,,,0.00,,2013-01-14 20:33:00,
2013-01-14 13:42:00,10.0,2.0,-100.00,SW,230,12.0,15.0,70,-99.99,,,0.00,,2013-01-14 20:42:00,
2013-01-14 13:53:00,10.0,2.0,-100.00,SW,230,12.0,15.0,70,-99.99,,,0.00,,2013-01-14 20:53:00,
2013-01-14 14:12:00,11.0,3.0,-100.00,WSW,245,11.0,14.0,70,-99.99,,,0.00,,2013-01-14 21:12:00,
2013-01-14 14:22:00,11.0,3.0,-100.00,WSW,245,11.0,14.0,70,-99.99,,,0.00,,2013-01-14 21:22:00,
2013-01-14 14:33:00,11.0,4.0,-100.00,WSW,240,10.0,13.0,71,-99.99,,,-99.99,,2013-01-14 21:33:00,
2013-01-14 14:42:00,11.0,4.0,-100.00,WSW,240,10.0,13.0,71,-99.99,,,-99.99,,2013-01-14 21:42:00,
2013-01-14 14:53:00,12.0,4.0,-100.00,SW,220,9.0,12.0,71,-99.99,,,0.00,,2013-01-14 21:53:00,
2013-01-14 15:02:00,12.0,4.0,-100.00,SW,220,9.0,12.0,71,-99.99,,,0.00,,2013-01-14 22:02:00,
2013-01-14 15:12:00,12.0,5.0,-100.00,WSW,245,8.0,12.0,73,-99.99,,,0.00,,2013-01-14 22:12:00,
2013-01-14 15:23:00,12.0,5.0,-100.00,WSW,245,8.0,12.0,73,-99.99,,,0.00,,2013-01-14 22:23:00,
2013-01-14 15:32:00,12.0,6.0,-100.00,SW,230,9.0,11.0,78,-99.99,,,0.00,,2013-01-14 22:32:00,
2013-01-14 15:42:00,12.0,6.0,-100.00,SW,230,9.0,11.0,78,-99.99,,,0.00,,2013-01-14 22:42:00,
2013-01-14 15:52:00,12.0,8.0,-100.00,WSW,240,8.0,9.0,83,-99.99,,,0.00,,2013-01-14 22:52:00,
2013-01-14 16:02:00,12.0,8.0,-100.00,WSW,240,8.0,9.0,83,-99.99,,,0.00,,2013-01-14 23:02:00,
2013-01-14 16:12:00,12.0,8.0,-100.00,WSW,240,8.0,9.0,83,-99.99,,,0.00,,2013-01-14 23:12:00,
2013-01-14 16:22:00,12.0,8.0,-100.00,WSW,240,8.0,9.0,83,-99.99,,,0.00,,2013-01-14 23:22:00,
2013-01-14 16:33:00,12.0,8.0,-100.00,SW,225,11.0,13.0,83,-99.99,,,0.00,,2013-01-14 23:33:00,
2013-01-14 16:42:00,12.0,8.0,-100.00,SW,225,11.0,13.0,83,-99.99,,,0.00,,2013-01-14 23:42:00,
2013-01-14 16:52:00,12.0,8.0,-100.00,SW,235,8.0,11.0,83,-99.99,,,0.00,,2013-01-14 23:52:00,
2013-01-14 17:02:00,12.0,8.0,-100.00,SW,235,8.0,11.0,83,-99.99,,,0.00,,2013-01-15 00:02:00,
2013-01-14 17:12:00,12.0,8.0,-100.00,WSW,255,6.0,9.0,83,-99.99,,,0.00,,2013-01-15 00:12:00,
2013-01-14 17:22:00,12.0,8.0,-100.00,WSW,255,6.0,9.0,83,-99.99,,,0.00,,2013-01-15 00:22:00,
2013-01-14 17:32:00,12.0,8.0,-100.00,WSW,255,6.0,8.0,82,-99.99,,,0.00,,2013-01-15 00:32:00,
2013-01-14 17:43:00,12.0,8.0,-100.00,WSW,255,6.0,8.0,82,-99.99,,,0.00,,2013-01-15 00:43:00,
2013-01-14 17:52:00,13.0,8.0,-100.00,WSW,240,6.0,8.0,82,-99.99,,,0.00,,2013-01-15 00:52:00,
2013-01-14 18:02:00,13.0,8.0,-100.00,WSW,240,6.0,8.0,82,-99.99,,,0.00,,2013-01-15 01:02:00,
2013-01-14 18:12:00,13.0,8.0,-100.00,SW,235,6.0,9.0,80,-99.99,,,0.00,,2013-01-15 01:12:00,
2013-01-14 18:22:00,13.0,8.0,-100.00,SW,235,6.0,9.0,80,-99.99,,,0.00,,2013-01-15 01:22:00,
2013-01-14 18:32:00,13.0,8.0,-100.00,SW,235,6.0,9.0,80,-99.99,,,0.00,,2013-01-15 01:32:00,
2013-01-14 18:42:00,13.0,8.0,-100.00,SW,235,6.0,9.0,80,-99.99,,,0.00,,2013-01-15 01:42:00,
2013-01-14 18:52:00,13.0,7.0,-100.00,WSW,240,8.0,11.0,77,-99.99,,,0.00,,2013-01-15 01:52:00,
2013-01-14 19:02:00,13.0,7.0,-100.00,WSW,240,8.0,11.0,77,-99.99,,,0.00,,2013-01-15 02:02:00,
2013-01-14 19:12:00,13.0,7.0,-100.00,WSW,255,8.0,9.0,76,-99.99,,,-99.99,,2013-01-15 02:12:00,
2013-01-14 19:22:00,13.0,7.0,-100.00,WSW,255,8.0,9.0,76,-99.99,,,-99.99,,2013-01-15 02:22:00,
2013-01-14 19:32:00,13.0,7.0,-100.00,WSW,255,8.0,9.0,76,-99.99,,,-99.99,,2013-01-15 02:32:00,
2013-01-14 19:41:00,13.0,9.0,-100.00,WSW,245,7.0,10.0,84,-99.99,,,0.00,,2013-01-15 02:41:00,
2013-01-14 19:42:00,13.0,7.0,-100.00,WSW,255,8.0,9.0,76,-99.99,,,-99.99,,2013-01-15 02:42:00,
2013-01-14 19:52:00,13.0,9.0,-100.00,WSW,245,9.0,11.0,83,-99.99,,,0.00,,2013-01-15 02:52:00,
2013-01-14 20:02:00,13.0,9.0,-100.00,WSW,245,9.0,11.0,83,-99.99,,,0.00,,2013-01-15 03:02:00,
2013-01-14 20:12:00,13.0,9.0,-100.00,WSW,245,7.0,10.0,84,-99.99,,,0.00,,2013-01-15 03:12:00,
2013-01-14 20:22:00,13.0,9.0,-100.00,WSW,245,7.0,10.0,84,-99.99,,,0.00,,2013-01-15 03:22:00,
2013-01-14 20:32:00,13.0,9.0,-100.00,WSW,245,7.0,10.0,84,-99.99,,,0.00,,2013-01-15 03:32:00,
2013-01-14 20:52:00,13.0,9.0,-100.00,WSW,245,8.0,9.0,85,-99.99,,,0.00,,2013-01-15 03:52:00,
2013-01-14 21:02:00,13.0,9.0,-100.00,WSW,245,8.0,9.0,85,-99.99,,,0.00,,2013-01-15 04:02:00,
2013-01-14 21:12:00,13.0,10.0,-100.00,West,270,4.0,7.0,86,-99.99,,,0.00,,2013-01-15 04:12:00,
2013-01-14 21:22:00,13.0,10.0,-100.00,West,270,4.0,7.0,86,-99.99,,,0.00,,2013-01-15 04:22:00,
2013-01-14 21:32:00,13.0,10.0,-100.00,West,270,4.0,7.0,86,-99.99,,,0.00,,2013-01-15 04:32:00,
2013-01-14 21:42:00,13.0,10.0,-100.00,West,270,4.0,7.0,86,-99.99,,,0.00,,2013-01-15 04:42:00,
2013-01-14 21:52:00,13.0,10.0,-100.00,WSW,245,6.0,9.0,85,-99.99,,,0.00,,2013-01-15 04:52:00,
2013-01-14 22:03:00,13.0,10.0,-100.00,WSW,245,6.0,9.0,85,-99.99,,,0.00,,2013-01-15 05:03:00,
2013-01-14 22:12:00,14.0,10.0,-100.00,WSW,240,6.0,8.0,86,-99.99,,,0.00,,2013-01-15 05:12:00,
2013-01-14 22:22:00,14.0,10.0,-100.00,WSW,240,6.0,8.0,86,-99.99,,,0.00,,2013-01-15 05:22:00,
2013-01-14 22:33:00,14.0,10.0,-100.00,WSW,245,6.0,9.0,85,-99.99,,,0.00,,2013-01-15 05:33:00,
2013-01-14 22:42:00,14.0,10.0,-100.00,WSW,245,6.0,9.0,85,-99.99,,,0.00,,2013-01-15 05:42:00,
2013-01-14 22:52:00,13.0,10.0,-100.00,SW,235,4.0,8.0,86,-99.99,,,0.00,,2013-01-15 05:52:00,
2013-01-14 23:02:00,13.0,10.0,-100.00,SW,235,4.0,8.0,86,-99.99,,,0.00,,2013-01-15 06:02:00,
2013-01-14 23:12:00,14.0,10.0,-100.00,WNW,295,2.0,4.0,86,-99.99,,,0.00,,2013-01-15 06:12:00,
2013-01-14 23:22:00,14.0,10.0,-100.00,WNW,295,2.0,4.0,86,-99.99,,,0.00,,2013-01-15 06:22:00,
2013-01-14 23:32:00,14.0,10.0,-100.00,WNW,295,2.0,4.0,86,-99.99,,,0.00,,2013-01-15 06:32:00,
2013-01-14 23:52:00,13.0,10.0,-100.00,NNE,25,2.0,3.0,86,-99.99,,,0.00,,2013-01-15 06:52:00,